Time;durP1;ratioP1;P1;durP2;ratioP2;P2;SDS_P1;SDS_P2;PMS_P1;PMS_P2;Temp;Humidity;BMP_temperature;BMP_pressure;BME280_temperature;BME280_humidity;BME280_pressure;Samples;Min_cycle;Max_cycle;Signal;HPM_P1;HPM_P2
2022/11/17 00:02:22;;;;;;;2.72;2.50;;;1.10;99.90;;;;;;5054917;28;20032;-69
2022/11/17 00:04:48;;;;;;;2.13;1.85;;;1.10;99.90;;;;;;5056368;28;20021;-68
2022/11/17 00:07:13;;;;;;;3.05;2.85;;;1.20;99.90;;;;;;5056219;28;20048;-69
2022/11/17 00:09:39;;;;;;;2.65;2.13;;;1.10;99.90;;;;;;5054795;28;20021;-73
2022/11/17 00:14:49;;;;;;;2.28;2.17;;;1.20;99.90;;;;;;5056022;28;20059;-73
2022/11/17 00:17:15;;;;;;;2.85;2.65;;;1.10;99.90;;;;;;5056083;28;20052;-68
2022/11/17 00:22:24;;;;;;;2.28;2.08;;;1.20;99.90;;;;;;5056262;28;20052;-73
2022/11/17 00:24:50;;;;;;;4.63;2.50;;;1.20;99.90;;;;;;5054678;28;20443;-73
2022/11/17 00:27:16;;;;;;;2.42;2.22;;;1.20;99.90;;;;;;5055648;28;20037;-69
2022/11/17 00:29:42;;;;;;;3.08;2.45;;;1.20;99.90;;;;;;5055569;28;20027;-68
2022/11/17 00:34:56;;;;;;;3.05;2.80;;;1.20;99.90;;;;;;5056140;28;20044;-68
2022/11/17 00:37:22;;;;;;;3.75;3.45;;;1.20;99.90;;;;;;5055649;28;20482;-69
2022/11/17 00:39:48;;;;;;;2.70;2.50;;;1.20;99.90;;;;;;5055570;28;20033;-73
2022/11/17 00:42:13;;;;;;;3.63;3.13;;;1.20;99.90;;;;;;5055474;28;20052;-67
2022/11/17 00:44:39;;;;;;;4.53;2.60;;;1.20;99.90;;;;;;5055578;28;20040;-72
2022/11/17 00:47:04;;;;;;;2.72;2.53;;;1.20;99.90;;;;;;5055447;28;20075;-70
2022/11/17 00:49:30;;;;;;;4.63;2.95;;;1.20;99.90;;;;;;5055540;28;20072;-73
2022/11/17 00:51:56;;;;;;;3.17;2.88;;;1.30;99.90;;;;;;5055275;28;20033;-73
2022/11/17 00:54:22;;;;;;;3.55;3.10;;;1.20;99.90;;;;;;5055324;28;20020;-73
2022/11/17 00:56:48;;;;;;;3.45;3.15;;;1.20;99.90;;;;;;5054072;28;20029;-73
2022/11/17 00:59:15;;;;;;;2.88;2.58;;;1.20;99.90;;;;;;5053873;28;20029;-68
2022/11/17 01:01:41;;;;;;;3.58;2.85;;;1.20;99.90;;;;;;5055258;28;20027;-73
2022/11/17 01:04:07;;;;;;;2.78;2.50;;;1.30;99.90;;;;;;5055031;28;20021;-68
2022/11/17 01:06:39;;;;;;;3.03;2.67;;;1.30;99.90;;;;;;5053955;28;20401;-68
2022/11/17 01:09:25;;;;;;;3.20;2.70;;;1.30;99.90;;;;;;5054998;28;20025;-72
2022/11/17 01:11:51;;;;;;;4.05;2.90;;;1.30;99.90;;;;;;5054606;28;20068;-73
2022/11/17 01:14:32;;;;;;;3.25;2.58;;;1.30;99.90;;;;;;5064669;28;20017;-68
2022/11/17 01:16:58;;;;;;;3.08;2.53;;;1.30;99.90;;;;;;5075368;28;20048;-68
2022/11/17 01:19:24;;;;;;;2.33;2.22;;;1.30;99.90;;;;;;5075102;28;20064;-73
2022/11/17 01:21:49;;;;;;;2.45;2.25;;;1.30;99.90;;;;;;5075370;28;20009;-73
2022/11/17 01:24:16;;;;;;;2.50;2.30;;;1.30;99.90;;;;;;5075173;28;20025;-68
2022/11/17 01:26:43;;;;;;;2.92;2.58;;;1.30;99.90;;;;;;5075144;28;20036;-73
2022/11/17 01:29:11;;;;;;;2.25;1.90;;;1.30;99.90;;;;;;5074955;28;20033;-73
2022/11/17 01:31:42;;;;;;;1.65;1.55;;;1.30;99.90;;;;;;5075075;28;20025;-73
2022/11/17 01:34:07;;;;;;;1.85;1.75;;;1.30;99.90;;;;;;5073651;28;20493;-73
2022/11/17 01:39:23;;;;;;;1.90;1.70;;;1.30;99.90;;;;;;5070833;28;20025;-68
2022/11/17 01:41:50;;;;;;;1.90;1.80;;;1.30;99.90;;;;;;5074881;28;20044;-73
2022/11/17 01:44:34;;;;;;;1.48;1.38;;;1.30;99.90;;;;;;5074718;28;20027;-68
2022/11/17 01:47:04;;;;;;;1.70;1.60;;;1.30;99.90;;;;;;5062899;28;20033;-74
2022/11/17 01:49:30;;;;;;;2.45;1.83;;;1.30;99.90;;;;;;5054704;28;20021;-68
2022/11/17 01:52:02;;;;;;;1.77;1.67;;;1.30;99.90;;;;;;5054745;28;20054;-68
2022/11/17 01:54:29;;;;;;;1.30;1.30;;;1.30;99.90;;;;;;5054596;28;20032;-68
2022/11/17 01:57:05;;;;;;;1.60;1.50;;;1.40;99.90;;;;;;5054665;28;20131;-68
2022/11/17 01:59:42;;;;;;;2.42;1.75;;;1.40;99.90;;;;;;5054467;28;20025;-68
2022/11/17 02:02:07;;;;;;;2.28;1.60;;;1.30;99.90;;;;;;5053107;28;20386;-74
2022/11/17 02:04:37;;;;;;;1.80;1.70;;;1.40;99.90;;;;;;5053800;28;20021;-73
2022/11/17 02:07:25;;;;;;;2.05;1.83;;;1.40;99.90;;;;;;5054269;28;20029;-74
2022/11/17 02:09:52;;;;;;;2.17;2.00;;;1.40;99.90;;;;;;5052508;28;20037;-68
2022/11/17 02:12:19;;;;;;;2.30;2.10;;;1.40;99.90;;;;;;5053002;28;20071;-73
2022/11/17 02:14:47;;;;;;;1.85;1.75;;;1.40;99.90;;;;;;5067715;28;20090;-68
2022/11/17 02:17:13;;;;;;;2.08;1.98;;;1.40;99.90;;;;;;5072896;28;20028;-68
2022/11/17 02:19:41;;;;;;;1.85;1.75;;;1.40;99.90;;;;;;5072776;28;20024;-67
2022/11/17 02:22:12;;;;;;;1.77;1.67;;;1.40;99.90;;;;;;5074037;28;20032;-73
2022/11/17 02:25:03;;;;;;;1.80;1.70;;;1.40;99.90;;;;;;5072705;28;20476;-73
2022/11/17 02:28:06;;;;;;;2.03;1.85;;;1.40;99.90;;;;;;5074023;28;20466;-73
2022/11/17 02:30:48;;;;;;;3.08;1.80;;;1.50;99.90;;;;;;5073861;28;20025;-73
2022/11/17 02:33:23;;;;;;;2.30;2.10;;;1.50;99.90;;;;;;5073928;28;20433;-68
2022/11/17 02:35:54;;;;;;;1.90;1.80;;;1.40;99.90;;;;;;5073834;28;20043;-73
2022/11/17 02:39:01;;;;;;;1.63;1.52;;;1.50;99.90;;;;;;5073757;28;20885;-68
2022/11/17 02:41:35;;;;;;;2.15;2.05;;;1.50;99.90;;;;;;5068814;28;20178;-74
2022/11/17 02:44:16;;;;;;;2.00;1.80;;;1.50;99.90;;;;;;5073497;28;20074;-73
2022/11/17 02:47:05;;;;;;;1.95;1.80;;;1.50;99.90;;;;;;5062664;28;20029;-73
2022/11/17 02:49:35;;;;;;;1.90;1.80;;;1.50;99.90;;;;;;5053772;28;20028;-73
2022/11/17 02:52:03;;;;;;;1.65;1.55;;;1.50;99.90;;;;;;5053639;28;20029;-68
2022/11/17 02:54:30;;;;;;;1.20;1.20;;;1.50;99.90;;;;;;5053317;28;20021;-73
2022/11/17 02:56:56;;;;;;;2.20;2.08;;;1.50;99.90;;;;;;5052201;28;20359;-73
2022/11/17 02:59:29;;;;;;;1.60;1.50;;;1.50;99.90;;;;;;5053283;28;20039;-68
2022/11/17 03:02:31;;;;;;;2.35;2.15;;;1.50;99.90;;;;;;5053483;28;20027;-68
2022/11/17 03:05:03;;;;;;;1.60;1.45;;;1.50;99.90;;;;;;5051947;28;20025;-73
2022/11/17 03:08:10;;;;;;;1.60;1.50;;;1.50;99.90;;;;;;5053330;28;20052;-73
2022/11/17 03:10:55;;;;;;;1.77;1.67;;;1.60;99.90;;;;;;5050551;28;20056;-73
2022/11/17 03:13:32;;;;;;;1.50;1.40;;;1.50;99.90;;;;;;5055455;28;20060;-73
2022/11/17 03:16:33;;;;;;;1.50;1.40;;;1.50;99.90;;;;;;5070977;28;20115;-73
2022/11/17 03:19:36;;;;;;;1.80;1.70;;;1.50;99.90;;;;;;5073200;28;20051;-68
2022/11/17 03:22:13;;;;;;;1.67;1.58;;;1.60;99.90;;;;;;5071888;28;20024;-74
2022/11/17 03:24:45;;;;;;;1.60;1.50;;;1.50;99.90;;;;;;5073208;28;20077;-69
2022/11/17 03:27:19;;;;;;;1.92;1.83;;;1.50;99.90;;;;;;5073112;28;20040;-74
2022/11/17 03:29:49;;;;;;;1.50;1.50;;;1.50;99.90;;;;;;5073181;28;20027;-68
2022/11/17 03:32:16;;;;;;;1.73;1.63;;;1.50;99.90;;;;;;5073012;28;20027;-73
2022/11/17 03:34:48;;;;;;;2.17;1.52;;;1.50;99.90;;;;;;5073047;28;20382;-73
2022/11/17 03:37:17;;;;;;;1.65;1.55;;;1.60;99.90;;;;;;5073068;28;20039;-73
2022/11/17 03:39:48;;;;;;;1.83;1.48;;;1.50;99.90;;;;;;5073195;28;20047;-68
2022/11/17 03:42:17;;;;;;;1.70;1.60;;;1.60;99.90;;;;;;5072851;28;20100;-68
2022/11/17 03:44:49;;;;;;;1.73;1.63;;;1.60;99.90;;;;;;5071699;28;20065;-74
2022/11/17 03:47:18;;;;;;;4.97;2.10;;;1.50;99.90;;;;;;5058203;28;20088;-68
2022/11/17 03:49:57;;;;;;;2.13;1.92;;;1.50;99.90;;;;;;5052899;28;20167;-74
2022/11/17 03:52:24;;;;;;;1.67;1.52;;;1.60;99.90;;;;;;5051574;28;20056;-68
2022/11/17 03:54:50;;;;;;;1.90;1.80;;;1.50;99.90;;;;;;5051622;28;20021;-73
2022/11/17 03:57:27;;;;;;;1.70;1.60;;;1.50;99.90;;;;;;5051494;28;20052;-74
2022/11/17 04:00:08;;;;;;;1.90;1.80;;;1.50;99.90;;;;;;5052903;28;20387;-74
2022/11/17 04:02:34;;;;;;;1.80;1.70;;;1.50;99.90;;;;;;5052763;28;20021;-73
2022/11/17 04:05:06;;;;;;;2.10;1.80;;;1.50;99.90;;;;;;5052875;28;20025;-68
2022/11/17 04:07:33;;;;;;;1.58;1.48;;;1.50;99.90;;;;;;5052706;28;20037;-69
2022/11/17 04:09:59;;;;;;;1.67;1.58;;;1.50;99.90;;;;;;5052630;28;20024;-69
2022/11/17 04:17:53;;;;;;;1.40;1.35;;;1.50;99.90;;;;;;5072968;28;20074;-68
2022/11/17 04:20:19;;;;;;;1.65;1.55;;;1.50;99.90;;;;;;5072408;28;21002;-73
2022/11/17 04:22:45;;;;;;;1.77;1.67;;;1.40;99.90;;;;;;5072524;28;20107;-70
2022/11/17 04:28:35;;;;;;;1.30;1.30;;;1.40;99.90;;;;;;5072559;28;20028;-73
2022/11/17 04:30:40;;;;;;;1.20;1.20;;;1.40;99.90;;;;;;5076101;28;20163;-68
2022/11/17 04:33:05;;;;;;;1.60;1.50;;;1.40;99.90;;;;;;5076094;28;20072;-74
2022/11/17 04:35:31;;;;;;;1.50;1.40;;;1.30;99.90;;;;;;5076311;28;20035;-73
2022/11/17 04:37:56;;;;;;;2.13;1.40;;;1.30;99.90;;;;;;5076041;28;20032;-69
2022/11/17 04:40:22;;;;;;;3.83;1.73;;;1.30;99.90;;;;;;5075936;28;20466;-73
2022/11/17 04:42:47;;;;;;;1.23;1.15;;;1.30;99.90;;;;;;5075894;28;20052;-68
2022/11/17 04:45:13;;;;;;;1.27;1.27;;;1.30;99.90;;;;;;5075896;28;20017;-68
2022/11/17 04:47:38;;;;;;;1.20;1.20;;;1.30;99.90;;;;;;5056175;28;20021;-73
2022/11/17 04:50:05;;;;;;;1.50;1.30;;;1.30;99.90;;;;;;5055940;28;20207;-74
2022/11/17 04:52:30;;;;;;;1.40;1.40;;;1.20;99.90;;;;;;5054456;28;20051;-68
2022/11/17 04:54:56;;;;;;;1.50;1.40;;;1.20;99.90;;;;;;5054435;28;20021;-68
2022/11/17 04:57:21;;;;;;;1.35;1.35;;;1.20;99.90;;;;;;5054285;28;20024;-73
2022/11/17 04:59:47;;;;;;;1.75;1.65;;;1.20;99.90;;;;;;5054423;28;20078;-68
2022/11/17 05:02:12;;;;;;;1.60;1.50;;;1.20;99.90;;;;;;5055522;28;20028;-68
2022/11/17 05:04:56;;;;;;;1.90;1.70;;;1.20;99.90;;;;;;5055581;28;20099;-68
2022/11/17 05:07:23;;;;;;;1.95;1.83;;;1.20;99.90;;;;;;5055377;28;20064;-73
2022/11/17 05:09:48;;;;;;;1.90;1.80;;;1.20;99.90;;;;;;5055454;28;20024;-68
2022/11/17 05:13:20;;;;;;;2.05;1.90;;;1.20;99.90;;;;;;5055457;28;20021;-69
2022/11/17 05:17:03;;;;;;;1.67;1.58;;;1.20;99.90;;;;;;5074274;28;20531;-73
2022/11/17 05:18:03;;;;;;;1.58;1.42;;;1.20;99.90;;;;;;5075220;28;20493;-68
2022/11/17 05:20:31;;;;;;;1.60;1.50;;;1.20;99.90;;;;;;5075284;28;20028;-72
2022/11/17 05:25:41;;;;;;;1.95;1.85;;;1.10;99.90;;;;;;5039485;28;20064;-73
2022/11/17 05:28:06;;;;;;;1.67;1.58;;;1.10;99.90;;;;;;5034464;28;20108;-73
2022/11/17 05:30:32;;;;;;;1.63;1.48;;;1.10;99.90;;;;;;5034899;28;20045;-68
2022/11/17 05:32:58;;;;;;;1.52;1.42;;;1.10;99.90;;;;;;5033699;28;20025;-68
2022/11/17 05:35:23;;;;;;;1.45;1.35;;;1.10;99.90;;;;;;5033742;28;20483;-73
2022/11/17 05:37:49;;;;;;;2.70;1.55;;;1.00;99.90;;;;;;5034863;28;20097;-73
2022/11/17 05:40:14;;;;;;;1.83;1.48;;;1.00;99.90;;;;;;5033749;28;20034;-68
2022/11/17 05:42:40;;;;;;;1.52;1.52;;;1.00;99.90;;;;;;5034846;28;20094;-69
2022/11/17 05:45:06;;;;;;;2.28;2.17;;;1.10;99.90;;;;;;5034010;28;20155;-68
2022/11/17 05:47:32;;;;;;;1.60;1.50;;;1.00;99.90;;;;;;5035517;28;20040;-73
2022/11/17 05:49:57;;;;;;;1.88;1.77;;;1.00;99.90;;;;;;5033459;28;20026;-72
2022/11/17 05:52:23;;;;;;;2.17;1.95;;;1.10;99.90;;;;;;5034534;28;20034;-69
2022/11/17 05:54:48;;;;;;;2.10;1.90;;;1.00;99.90;;;;;;5034515;28;20387;-73
2022/11/17 05:57:19;;;;;;;3.15;1.92;;;1.00;99.90;;;;;;5034270;28;20127;-68
2022/11/17 05:59:47;;;;;;;2.80;2.30;;;1.00;99.90;;;;;;5033856;28;20026;-73
2022/11/17 06:02:24;;;;;;;2.65;2.45;;;1.00;99.90;;;;;;5034913;28;20383;-73
2022/11/17 06:04:50;;;;;;;2.10;1.90;;;1.00;99.90;;;;;;5037273;28;20025;-73
2022/11/17 06:07:17;;;;;;;2.30;2.15;;;1.00;99.90;;;;;;5035363;28;20061;-68
2022/11/17 06:09:42;;;;;;;2.60;2.33;;;1.00;99.90;;;;;;5034472;28;20033;-68
2022/11/17 06:12:08;;;;;;;3.83;2.03;;;0.90;99.90;;;;;;5034177;28;20104;-73
2022/11/17 06:14:34;;;;;;;2.30;2.08;;;0.90;99.90;;;;;;5035326;28;20021;-68
2022/11/17 06:17:10;;;;;;;2.17;1.98;;;0.90;99.90;;;;;;5041248;28;20022;-69
2022/11/17 06:19:41;;;;;;;3.97;2.20;;;0.90;99.90;;;;;;5032170;28;20109;-68
2022/11/17 06:22:07;;;;;;;1.90;1.80;;;0.90;99.90;;;;;;5034690;28;20022;-68
2022/11/17 06:24:33;;;;;;;2.40;2.20;;;0.90;99.90;;;;;;5064880;28;20047;-67
2022/11/17 06:26:59;;;;;;;2.30;2.10;;;0.90;99.90;;;;;;5071527;28;20032;-74
2022/11/17 06:29:26;;;;;;;3.40;3.10;;;0.90;99.90;;;;;;5072303;28;20099;-72
2022/11/17 06:31:52;;;;;;;4.28;2.40;;;0.90;99.90;;;;;;5038605;28;20028;-68
2022/11/17 06:34:18;;;;;;;3.47;2.13;;;0.90;99.90;;;;;;5032615;28;20041;-68
2022/11/17 06:36:43;;;;;;;3.30;2.65;;;0.90;99.90;;;;;;5033376;28;20029;-74
2022/11/17 06:39:09;;;;;;;2.40;2.20;;;0.90;99.90;;;;;;5032547;28;20103;-72
2022/11/17 06:41:35;;;;;;;2.97;2.40;;;0.80;99.90;;;;;;5037940;28;20041;-67
2022/11/17 06:44:01;;;;;;;3.03;2.17;;;0.80;99.90;;;;;;5051765;28;20025;-68
2022/11/17 06:46:36;;;;;;;2.40;2.20;;;0.80;99.90;;;;;;5053327;28;20040;-73
2022/11/17 06:49:06;;;;;;;2.33;1.80;;;0.80;99.90;;;;;;5039203;28;20025;-68
2022/11/17 06:51:32;;;;;;;2.10;1.90;;;0.80;99.90;;;;;;5033523;28;20476;-73
2022/11/17 06:53:58;;;;;;;1.88;1.77;;;0.80;99.90;;;;;;5033512;28;20487;-72
2022/11/17 06:56:23;;;;;;;7.15;2.78;;;0.80;99.90;;;;;;5037917;28;20078;-68
2022/11/17 06:58:49;;;;;;;1.83;1.73;;;0.70;99.90;;;;;;5053351;28;20195;-69
2022/11/17 07:01:16;;;;;;;1.67;1.58;;;0.80;99.90;;;;;;5048303;28;20037;-68
2022/11/17 07:03:42;;;;;;;1.90;1.80;;;0.80;99.90;;;;;;5047301;28;20029;-69
2022/11/17 07:06:11;;;;;;;1.88;1.75;;;0.80;99.90;;;;;;5064348;28;20063;-68
2022/11/17 07:08:37;;;;;;;2.03;1.85;;;0.70;99.90;;;;;;5058071;28;20437;-68
2022/11/17 07:11:09;;;;;;;2.45;2.25;;;0.70;99.90;;;;;;5059871;28;20119;-68
2022/11/17 07:13:35;;;;;;;1.92;1.70;;;0.70;99.90;;;;;;5045282;28;20033;-68
2022/11/17 07:16:09;;;;;;;1.60;1.50;;;0.60;99.90;;;;;;5053930;28;20040;-68
2022/11/17 07:18:35;;;;;;;1.85;1.75;;;0.60;99.90;;;;;;5062354;28;20071;-67
2022/11/17 07:21:06;;;;;;;2.10;1.98;;;0.60;99.90;;;;;;5070294;28;20548;-67
2022/11/17 07:23:33;;;;;;;3.15;2.60;;;0.60;99.90;;;;;;5058921;28;20021;-67
2022/11/17 07:26:00;;;;;;;2.70;2.50;;;0.60;99.90;;;;;;5063433;28;20044;-68
2022/11/17 07:28:26;;;;;;;4.70;2.42;;;0.50;99.90;;;;;;5066769;28;20025;-68
2022/11/17 07:30:52;;;;;;;2.63;2.38;;;0.50;99.90;;;;;;5063429;28;20111;-68
2022/11/17 07:33:18;;;;;;;2.50;2.30;;;0.60;99.90;;;;;;5051390;28;20075;-67
2022/11/17 07:35:44;;;;;;;3.78;2.75;;;0.60;99.90;;;;;;5052552;28;20479;-69
2022/11/17 07:38:09;;;;;;;3.40;2.63;;;0.60;99.90;;;;;;5052693;28;20387;-68
2022/11/17 07:40:35;;;;;;;3.67;3.30;;;0.60;99.90;;;;;;5051288;28;20044;-74
2022/11/17 07:43:01;;;;;;;3.42;3.13;;;0.60;99.90;;;;;;5049912;28;20049;-74
2022/11/17 07:45:27;;;;;;;7.45;3.28;;;0.60;99.90;;;;;;5047250;28;20130;-74
2022/11/17 07:48:00;;;;;;;5.68;3.42;;;0.60;99.90;;;;;;5050459;28;20029;-74
2022/11/17 07:50:27;;;;;;;4.88;3.55;;;0.60;99.90;;;;;;5045306;28;20347;-74
2022/11/17 07:52:54;;;;;;;5.57;4.38;;;0.60;99.90;;;;;;5069666;28;20500;-68
2022/11/17 07:55:21;;;;;;;4.25;3.67;;;0.60;99.90;;;;;;5065226;28;20086;-68
2022/11/17 07:57:52;;;;;;;4.00;3.38;;;0.70;99.90;;;;;;5071571;28;20044;-68
2022/11/17 08:00:18;;;;;;;7.75;5.22;;;0.70;99.90;;;;;;5064408;28;20017;-73
2022/11/17 08:02:43;;;;;;;7.00;4.78;;;0.60;99.90;;;;;;5060268;28;20140;-74
2022/11/17 08:05:09;;;;;;;5.15;3.20;;;0.60;99.90;;;;;;5066180;28;20032;-74
2022/11/17 08:07:35;;;;;;;3.47;3.10;;;0.60;99.90;;;;;;5070229;28;20048;-73
2022/11/17 08:10:00;;;;;;;2.53;2.33;;;0.60;99.90;;;;;;5058732;28;20030;-69
2022/11/17 08:12:26;;;;;;;4.22;2.83;;;0.60;99.90;;;;;;5044790;28;20116;-75
2022/11/17 08:14:51;;;;;;;3.55;3.00;;;0.60;99.90;;;;;;5055603;28;20079;-69
2022/11/17 08:17:17;;;;;;;3.70;3.13;;;0.60;99.90;;;;;;5048748;28;20483;-68
2022/11/17 08:19:42;;;;;;;4.97;3.70;;;0.60;99.90;;;;;;5052631;28;20100;-69
2022/11/17 08:22:08;;;;;;;7.43;5.85;;;0.60;99.90;;;;;;5046177;28;20071;-68
2022/11/17 08:24:33;;;;;;;8.25;5.53;;;0.60;99.90;;;;;;5045497;28;20057;-69
2022/11/17 08:26:59;;;;;;;4.97;4.18;;;0.60;99.90;;;;;;5062749;28;20040;-68
2022/11/17 08:29:25;;;;;;;6.15;4.70;;;0.70;99.90;;;;;;5073418;28;20082;-74
2022/11/17 08:31:50;;;;;;;11.40;8.02;;;0.70;99.90;;;;;;5071903;28;20097;-74
2022/11/17 08:34:16;;;;;;;13.52;8.25;;;0.70;99.90;;;;;;5075088;28;20040;-68
2022/11/17 08:36:41;;;;;;;12.10;7.53;;;0.70;99.90;;;;;;5075075;28;20488;-74
2022/11/17 08:39:07;;;;;;;17.63;11.52;;;0.70;99.90;;;;;;5074903;28;20039;-74
2022/11/17 08:41:32;;;;;;;8.02;6.63;;;0.80;99.90;;;;;;5071311;28;20110;-69
2022/11/17 08:43:58;;;;;;;64.13;36.78;;;0.80;99.90;;;;;;5056650;28;20429;-75
2022/11/17 08:46:27;;;;;;;17.50;12.23;;;0.90;99.90;;;;;;5072227;28;20053;-75
2022/11/17 08:48:52;;;;;;;7.45;4.30;;;0.90;99.90;;;;;;5066557;28;20352;-75
2022/11/17 08:51:18;;;;;;;30.45;18.67;;;1.00;99.90;;;;;;5056483;28;20078;-68
2022/11/17 08:53:43;;;;;;;15.88;9.57;;;0.90;99.90;;;;;;5059027;28;20160;-74
2022/11/17 08:56:11;;;;;;;39.72;23.45;;;1.00;99.90;;;;;;5050386;28;20064;-68
2022/11/17 08:58:41;;;;;;;29.05;17.63;;;1.00;99.90;;;;;;5048895;28;20029;-68
2022/11/17 09:01:14;;;;;;;27.38;19.75;;;1.10;99.90;;;;;;5059392;28;20078;-73
2022/11/17 09:03:42;;;;;;;18.25;14.43;;;1.10;99.90;;;;;;5074681;28;20036;-74
2022/11/17 09:06:08;;;;;;;18.60;11.10;;;1.10;99.90;;;;;;5074077;28;20482;-74
2022/11/17 09:08:34;;;;;;;9.95;6.82;;;1.10;99.90;;;;;;5074328;28;20051;-74
2022/11/17 09:11:07;;;;;;;27.90;17.23;;;1.10;99.90;;;;;;5074140;28;20025;-74
2022/11/17 09:13:34;;;;;;;13.63;7.82;;;1.10;99.90;;;;;;5067010;28;20032;-74
2022/11/17 09:16:05;;;;;;;5.03;4.38;;;1.00;99.90;;;;;;5046815;28;20025;-74
2022/11/17 09:18:31;;;;;;;9.32;7.20;;;1.00;99.90;;;;;;5074064;28;20482;-74
2022/11/17 09:21:01;;;;;;;11.50;9.15;;;0.90;99.90;;;;;;5074301;28;20061;-74
2022/11/17 09:23:28;;;;;;;8.88;6.07;;;0.90;99.90;;;;;;5074120;28;20036;-74
2022/11/17 09:25:54;;;;;;;9.55;7.85;;;0.90;99.90;;;;;;5072826;28;20059;-74
2022/11/17 09:28:22;;;;;;;7.97;6.85;;;0.90;99.90;;;;;;5072353;28;20035;-74
2022/11/17 09:30:48;;;;;;;8.88;8.07;;;1.00;99.90;;;;;;5058894;28;20173;-68
2022/11/17 09:33:13;;;;;;;5.40;4.82;;;1.00;99.90;;;;;;5063590;28;20056;-69
2022/11/17 09:35:39;;;;;;;17.80;10.98;;;0.90;99.90;;;;;;5073943;28;20490;-68
2022/11/17 09:38:04;;;;;;;11.95;8.52;;;1.00;99.90;;;;;;5073549;28;20402;-69
2022/11/17 09:40:30;;;;;;;5.30;4.18;;;1.00;99.90;;;;;;5073741;28;20096;-68
2022/11/17 09:42:57;;;;;;;7.35;4.38;;;0.90;99.90;;;;;;5060367;28;20660;-73
2022/11/17 09:45:36;;;;;;;12.07;8.32;;;0.80;99.90;;;;;;5073100;28;20413;-74
2022/11/17 09:48:10;;;;;;;22.30;13.63;;;0.80;99.90;;;;;;5072049;28;20071;-69
2022/11/17 09:50:38;;;;;;;6.25;5.35;;;0.80;99.90;;;;;;5073650;28;20025;-68
2022/11/17 09:53:33;;;;;;;3.22;2.92;;;0.80;99.90;;;;;;5071249;28;20082;-68
2022/11/17 09:56:05;;;;;;;4.18;3.78;;;0.80;99.90;;;;;;5062341;28;20112;-74
2022/11/17 09:58:44;;;;;;;4.20;3.38;;;0.80;99.90;;;;;;5071644;28;20118;-74
2022/11/17 10:01:16;;;;;;;7.03;4.15;;;0.80;99.90;;;;;;5059303;28;20055;-68
2022/11/17 10:03:46;;;;;;;6.03;4.03;;;0.70;99.90;;;;;;5073424;28;20040;-69
2022/11/17 10:06:23;;;;;;;6.32;4.70;;;0.70;99.90;;;;;;5072991;28;20040;-74
2022/11/17 10:09:20;;;;;;;14.18;9.55;;;0.70;99.90;;;;;;5073049;28;20106;-68
2022/11/17 10:11:46;;;;;;;11.43;8.70;;;0.70;99.90;;;;;;5063357;28;20047;-68
2022/11/17 10:14:19;;;;;;;14.23;11.30;;;0.80;99.90;;;;;;5057432;28;20071;-68
2022/11/17 10:16:54;;;;;;;19.30;11.88;;;0.80;99.90;;;;;;5045605;28;20390;-68
2022/11/17 10:19:31;;;;;;;6.97;6.28;;;0.80;99.90;;;;;;5045688;28;20036;-74
2022/11/17 10:22:09;;;;;;;12.23;9.60;;;0.80;99.90;;;;;;5042385;28;20051;-73
2022/11/17 10:24:42;;;;;;;11.55;7.70;;;0.80;99.90;;;;;;5044678;28;20033;-68
2022/11/17 10:27:16;;;;;;;;;;;0.80;99.90;;;;;;5048651;28;20041;-68
2022/11/17 10:30:02;;;;;;;18.35;9.75;;;0.90;99.90;;;;;;5041468;28;19904;-73
2022/11/17 10:32:30;;;;;;;22.25;13.68;;;0.90;99.90;;;;;;5056165;28;20029;-69
2022/11/17 10:35:15;;;;;;;18.27;11.20;;;1.00;99.90;;;;;;5072760;28;20025;-69
2022/11/17 10:37:55;;;;;;;8.40;6.55;;;1.00;99.90;;;;;;5072721;28;20032;-68
2022/11/17 10:40:24;;;;;;;14.50;10.10;;;1.00;99.90;;;;;;5071311;28;20020;-74
2022/11/17 10:43:22;;;;;;;28.20;18.27;;;1.00;99.90;;;;;;5058529;28;20049;-68
2022/11/17 10:45:57;;;;;;;18.63;13.90;;;1.00;99.90;;;;;;5069178;28;20032;-68
2022/11/17 10:48:35;;;;;;;23.05;13.65;;;1.00;99.90;;;;;;5067065;28;20047;-68
2022/11/17 10:51:08;;;;;;;21.17;14.07;;;0.90;99.90;;;;;;5072382;28;20024;-74
2022/11/17 10:53:39;;;;;;;11.77;7.43;;;0.80;99.90;;;;;;5070540;28;20032;-74
2022/11/17 10:56:06;;;;;;;14.07;8.70;;;0.60;99.90;;;;;;5069568;28;20017;-68
2022/11/17 10:58:49;;;;;;;4.45;4.05;;;0.70;99.90;;;;;;5071895;28;20048;-74
2022/11/17 11:01:28;;;;;;;4.88;4.38;;;0.60;99.90;;;;;;5056108;28;20036;-68
2022/11/17 11:03:54;;;;;;;11.90;7.40;;;0.50;99.90;;;;;;5066946;28;20044;-74
2022/11/17 11:06:23;;;;;;;8.23;6.05;;;0.60;99.90;;;;;;5070882;28;20032;-74
2022/11/17 11:08:55;;;;;;;5.75;4.53;;;0.50;99.90;;;;;;5072297;28;20478;-68
2022/11/17 11:11:44;;;;;;;5.22;4.63;;;0.50;99.90;;;;;;5072189;28;20028;-74
2022/11/17 11:14:19;;;;;;;11.68;8.00;;;0.50;99.90;;;;;;5061567;28;20120;-74
2022/11/17 11:16:48;;;;;;;10.13;7.28;;;0.50;99.90;;;;;;5072373;28;20121;-74
2022/11/17 11:19:15;;;;;;;7.40;5.47;;;0.60;99.90;;;;;;5070566;28;20101;-68
2022/11/17 11:21:57;;;;;;;7.93;5.05;;;0.60;99.90;;;;;;5072286;28;20021;-68
2022/11/17 11:25:03;;;;;;;7.03;5.63;;;0.60;99.90;;;;;;5071880;28;20184;-74
2022/11/17 11:27:43;;;;;;;8.55;6.22;;;0.60;99.90;;;;;;5047951;28;20048;-68
2022/11/17 11:30:13;;;;;;;14.05;8.95;;;0.60;99.90;;;;;;5067643;28;20064;-68
2022/11/17 11:33:03;;;;;;;22.05;11.80;;;0.60;99.90;;;;;;5053270;28;20055;-73
2022/11/17 11:35:41;;;;;;;10.55;8.27;;;0.70;99.90;;;;;;5071587;28;20036;-68
2022/11/17 11:38:31;;;;;;;12.13;8.73;;;0.70;99.90;;;;;;5074043;28;20028;-74
2022/11/17 11:41:29;;;;;;;7.10;5.63;;;0.70;99.90;;;;;;5076376;28;20043;-74
2022/11/17 11:44:26;;;;;;;5.28;4.53;;;0.60;99.90;;;;;;5056446;28;20080;-68
2022/11/17 11:46:57;;;;;;;9.23;6.68;;;0.60;99.90;;;;;;5076238;28;20040;-68
2022/11/17 11:49:33;;;;;;;7.45;6.47;;;0.50;99.90;;;;;;5075423;28;20039;-73
2022/11/17 11:52:01;;;;;;;9.57;6.60;;;0.50;99.90;;;;;;5076143;28;20127;-73
2022/11/17 11:54:37;;;;;;;11.50;6.47;;;0.50;99.90;;;;;;5068342;28;20035;-73
2022/11/17 11:57:03;;;;;;;9.90;6.25;;;0.50;99.90;;;;;;5075382;28;20188;-68
2022/11/17 11:59:49;;;;;;;9.80;6.65;;;0.50;99.90;;;;;;5075569;28;20530;-73
2022/11/17 12:02:28;;;;;;;5.57;4.78;;;0.50;99.90;;;;;;5069593;28;20024;-73
2022/11/17 12:04:56;;;;;;;41.67;23.95;;;0.50;99.90;;;;;;5074977;28;20490;-74
2022/11/17 12:07:49;;;;;;;19.92;12.13;;;0.50;99.90;;;;;;5075555;28;20050;-69
2022/11/17 12:10:29;;;;;;;14.20;9.38;;;0.50;99.90;;;;;;5061869;28;20052;-74
2022/11/17 12:12:56;;;;;;;14.48;10.10;;;0.40;99.90;;;;;;5050420;28;20541;-68
2022/11/17 12:15:21;;;;;;;9.35;6.55;;;0.40;99.90;;;;;;5070177;28;20032;-73
2022/11/17 12:18:02;;;;;;;21.30;13.30;;;0.40;99.90;;;;;;5074345;28;20051;-74
2022/11/17 12:20:38;;;;;;;14.20;10.52;;;0.40;99.90;;;;;;5075237;28;20037;-68
2022/11/17 12:23:24;;;;;;;14.88;8.32;;;0.50;99.90;;;;;;5075262;28;20020;-73
2022/11/17 12:25:53;;;;;;;10.65;7.43;;;0.40;99.90;;;;;;5073860;28;20025;-68
2022/11/17 12:28:30;;;;;;;8.93;5.95;;;0.40;99.90;;;;;;5074399;28;20069;-73
2022/11/17 12:31:06;;;;;;;12.75;8.15;;;0.40;99.90;;;;;;5058340;28;20491;-67
2022/11/17 12:33:51;;;;;;;6.75;5.45;;;0.50;99.90;;;;;;5071096;28;20070;-68
2022/11/17 12:36:23;;;;;;;8.38;6.20;;;0.40;99.90;;;;;;5071044;28;20060;-68
2022/11/17 12:38:53;;;;;;;11.10;6.35;;;0.40;99.90;;;;;;5075183;28;20524;-68
2022/11/17 12:41:49;;;;;;;10.20;6.57;;;0.40;99.90;;;;;;5072015;28;20060;-67
2022/11/17 12:44:37;;;;;;;11.57;6.68;;;0.40;99.90;;;;;;5067974;28;20036;-73
2022/11/17 12:47:11;;;;;;;7.88;5.72;;;0.40;99.90;;;;;;5073535;28;20040;-73
2022/11/17 12:50:16;;;;;;;5.93;4.88;;;0.40;99.90;;;;;;5074180;28;20060;-67
2022/11/17 12:53:06;;;;;;;8.30;5.88;;;0.40;99.90;;;;;;5073875;28;20036;-74
2022/11/17 12:55:31;;;;;;;10.77;6.85;;;0.30;99.90;;;;;;5068007;28;20044;-68
2022/11/17 12:58:15;;;;;;;5.38;4.70;;;0.40;99.90;;;;;;5073031;28;20029;-68
2022/11/17 13:00:57;;;;;;;8.10;5.80;;;0.40;99.90;;;;;;5067779;28;20402;-73
2022/11/17 13:03:41;;;;;;;9.55;6.72;;;0.40;99.90;;;;;;5074605;28;20386;-73
2022/11/17 13:06:09;;;;;;;12.50;7.53;;;0.40;99.90;;;;;;5074151;28;20397;-73
2022/11/17 13:08:35;;;;;;;8.48;5.70;;;0.40;99.90;;;;;;5074652;28;20455;-74
2022/11/17 13:11:10;;;;;;;9.70;6.38;;;0.40;99.90;;;;;;5074068;28;20033;-74
2022/11/17 13:13:36;;;;;;;7.25;5.50;;;0.40;99.90;;;;;;5066086;28;20097;-74
2022/11/17 13:16:02;;;;;;;10.07;5.68;;;0.40;99.90;;;;;;5073639;28;20033;-73
2022/11/17 13:18:29;;;;;;;10.70;7.45;;;0.40;99.90;;;;;;5074219;28;20200;-73
2022/11/17 13:20:56;;;;;;;9.27;5.55;;;0.50;99.90;;;;;;5065903;28;20032;-73
2022/11/17 13:23:24;;;;;;;8.48;5.97;;;0.50;99.90;;;;;;5072732;28;20032;-69
2022/11/17 13:26:11;;;;;;;9.60;6.10;;;0.40;99.90;;;;;;5060110;28;20071;-67
2022/11/17 13:28:36;;;;;;;7.60;6.28;;;0.40;99.90;;;;;;5070451;28;20041;-67
2022/11/17 13:31:02;;;;;;;8.32;6.05;;;0.40;99.90;;;;;;5044659;28;20033;-69
2022/11/17 13:33:29;;;;;;;11.88;6.65;;;0.40;99.90;;;;;;5048098;28;20017;-68
2022/11/17 13:36:07;;;;;;;8.48;6.95;;;0.40;99.90;;;;;;5043888;28;20539;-67
2022/11/17 13:38:33;;;;;;;8.30;5.65;;;0.40;99.90;;;;;;5049531;28;20025;-67
2022/11/17 13:41:00;;;;;;;14.70;8.23;;;0.40;99.90;;;;;;5042205;28;20076;-67